Time;durP1;ratioP1;P1;durP2;ratioP2;P2;SDS_P1;SDS_P2;PMS_P1;PMS_P2;Temp;Humidity;BMP_temperature;BMP_pressure;BME280_temperature;BME280_humidity;BME280_pressure;Samples;Min_cycle;Max_cycle;Signal;HPM_P1;HPM_P2
2023/08/07 05:58:31;;;;;;;2.30;2.10;;;15.20;99.90;;;;;;6250672;22;20196;-82
2023/08/07 06:00:58;;;;;;;2.43;1.80;;;15.20;99.90;;;;;;6225439;23;20171;-85
2023/08/07 06:03:26;;;;;;;2.23;1.97;;;15.00;99.90;;;;;;6250730;23;20559;-84
2023/08/07 06:05:53;;;;;;;4.00;1.80;;;15.00;99.90;;;;;;6224258;23;20444;-81
2023/08/07 06:08:20;;;;;;;4.37;2.17;;;14.90;99.90;;;;;;6223796;23;20196;-81
2023/08/07 06:10:47;;;;;;;3.13;1.90;;;14.80;99.90;;;;;;6223776;23;20548;-82
2023/08/07 06:13:14;;;;;;;2.27;1.70;;;14.80;99.90;;;;;;6250210;23;20199;-80
2023/08/07 06:16:03;;;;;;;3.30;1.80;;;14.80;99.90;;;;;;6223353;23;20440;-82
2023/08/07 06:18:30;;;;;;;2.20;1.60;;;14.70;99.90;;;;;;6250102;23;20496;-82
2023/08/07 06:20:57;;;;;;;5.10;1.93;;;14.70;99.90;;;;;;6223528;23;20467;-80
2023/08/07 06:23:24;;;;;;;3.43;1.70;;;14.80;99.90;;;;;;6198955;23;20197;-82
2023/08/07 06:25:51;;;;;;;1.50;1.33;;;14.90;99.90;;;;;;6224973;23;20525;-83
2023/08/07 06:28:24;;;;;;;1.50;1.40;;;14.90;99.90;;;;;;6224007;23;20192;-82
2023/08/07 06:30:59;;;;;;;2.17;1.27;;;15.10;99.90;;;;;;6249995;23;20483;-82
2023/08/07 06:33:27;;;;;;;1.87;1.50;;;15.20;99.90;;;;;;6223385;23;20619;-81
2023/08/07 06:36:01;;;;;;;5.03;1.60;;;15.10;99.90;;;;;;6198690;23;20167;-83
2023/08/07 06:38:28;;;;;;;1.43;1.30;;;15.20;99.90;;;;;;6198268;23;20194;-82
2023/08/07 06:41:01;;;;;;;2.50;1.40;;;15.10;99.90;;;;;;6222902;23;20542;-79
2023/08/07 06:43:31;;;;;;;1.77;1.30;;;15.10;99.90;;;;;;6198269;23;20459;-81
2023/08/07 06:45:58;;;;;;;3.77;1.77;;;15.00;99.90;;;;;;6198001;23;20163;-81
2023/08/07 06:48:26;;;;;;;3.20;1.60;;;14.90;99.90;;;;;;6249443;23;20200;-82
2023/08/07 06:50:53;;;;;;;3.13;1.60;;;14.80;99.90;;;;;;6223479;23;20533;-82
2023/08/07 06:53:20;;;;;;;2.17;1.50;;;14.80;99.90;;;;;;6224245;23;20186;-82
2023/08/07 06:55:49;;;;;;;1.90;1.50;;;14.80;99.90;;;;;;6199070;23;20216;-80
2023/08/07 06:58:22;;;;;;;2.37;1.50;;;14.80;99.90;;;;;;6222424;23;20218;-80
2023/08/07 07:00:50;;;;;;;1.70;1.30;;;14.80;99.90;;;;;;6222892;23;20406;-81
2023/08/07 07:03:17;;;;;;;2.73;1.50;;;14.80;99.90;;;;;;6223186;23;20183;-80
2023/08/07 07:05:48;;;;;;;1.70;1.53;;;15.00;99.90;;;;;;6223182;23;20251;-81
2023/08/07 07:08:15;;;;;;;2.73;1.50;;;15.20;99.90;;;;;;6249755;23;20228;-80
2023/08/07 07:10:48;;;;;;;2.40;1.50;;;15.40;99.90;;;;;;6222843;23;20596;-80
2023/08/07 07:13:15;;;;;;;2.47;1.40;;;15.40;99.90;;;;;;6249036;23;20237;-80
2023/08/07 07:15:54;;;;;;;2.20;1.30;;;15.50;99.90;;;;;;6221800;23;20402;-80
2023/08/07 07:18:24;;;;;;;3.93;1.40;;;15.50;99.90;;;;;;6198059;23;20200;-79
2023/08/07 07:20:58;;;;;;;1.50;1.30;;;15.50;99.90;;;;;;6222473;23;20396;-80
2023/08/07 07:23:28;;;;;;;1.53;1.30;;;15.60;99.90;;;;;;6222704;23;20356;-80
2023/08/07 07:26:00;;;;;;;2.00;1.40;;;15.70;99.90;;;;;;6249238;23;20436;-80
2023/08/07 07:28:31;;;;;;;1.97;1.37;;;15.60;99.90;;;;;;6221034;23;20194;-81
2023/08/07 07:31:05;;;;;;;1.70;1.30;;;15.60;99.90;;;;;;6249192;23;20216;-79
2023/08/07 07:33:36;;;;;;;2.17;1.30;;;15.70;99.90;;;;;;6249179;23;20250;-80
2023/08/07 07:36:07;;;;;;;1.70;1.50;;;15.60;99.90;;;;;;6222594;23;20169;-80
2023/08/07 07:38:34;;;;;;;4.00;1.80;;;15.60;99.90;;;;;;6197110;23;20523;-81
2023/08/07 07:41:10;;;;;;;2.23;1.40;;;15.70;99.90;;;;;;6248895;23;20258;-80
2023/08/07 07:43:42;;;;;;;2.30;1.23;;;16.00;99.90;;;;;;6222820;23;20212;-81
2023/08/07 07:46:17;;;;;;;3.03;1.47;;;15.80;99.90;;;;;;6198700;23;20166;-81
2023/08/07 07:49:06;;;;;;;1.80;1.40;;;15.70;99.90;;;;;;6222021;23;20281;-81
2023/08/07 07:51:46;;;;;;;3.60;1.60;;;15.80;99.90;;;;;;6198150;23;20170;-80
2023/08/07 07:54:26;;;;;;;1.67;1.33;;;15.70;99.90;;;;;;6249013;23;20170;-81
2023/08/07 07:57:11;;;;;;;2.33;1.30;;;15.70;99.90;;;;;;6224590;23;20182;-81
2023/08/07 07:59:52;;;;;;;3.13;1.60;;;15.70;99.90;;;;;;6198697;23;20190;-80
2023/08/07 08:02:40;;;;;;;3.20;1.40;;;15.70;99.90;;;;;;6223915;23;20246;-80
2023/08/07 08:05:11;;;;;;;2.00;1.50;;;15.70;99.90;;;;;;6222749;23;20217;-80
2023/08/07 08:07:49;;;;;;;4.00;1.53;;;15.60;99.90;;;;;;6224177;23;20209;-80
2023/08/07 08:10:22;;;;;;;1.97;1.70;;;15.70;99.90;;;;;;6223045;23;20150;-79
2023/08/07 08:12:54;;;;;;;3.60;1.97;;;15.80;99.90;;;;;;6197421;23;20190;-80
2023/08/07 08:15:27;;;;;;;3.33;1.83;;;15.70;99.90;;;;;;6197814;23;20502;-81
2023/08/07 08:18:07;;;;;;;2.37;1.60;;;15.90;99.90;;;;;;6224298;23;20189;-81
2023/08/07 08:20:42;;;;;;;3.50;1.50;;;16.00;99.90;;;;;;6196503;23;20167;-80
2023/08/07 08:23:26;;;;;;;2.67;1.30;;;16.50;99.90;;;;;;6222249;23;20396;-81
2023/08/07 08:26:17;;;;;;;2.60;1.50;;;17.10;99.90;;;;;;6224842;23;20253;-79
2023/08/07 08:29:14;;;;;;;2.60;1.40;;;17.00;99.90;;;;;;6201621;23;20220;-80
2023/08/07 08:31:53;;;;;;;5.40;1.30;;;17.20;99.90;;;;;;6198680;23;20216;-80
2023/08/07 08:34:33;;;;;;;1.47;1.20;;;16.80;99.90;;;;;;6221574;23;20612;-81
2023/08/07 08:37:11;;;;;;;3.27;1.53;;;16.90;99.90;;;;;;6221555;23;20197;-81
2023/08/07 08:39:47;;;;;;;1.97;1.30;;;16.80;99.90;;;;;;6221523;23;20186;-79
2023/08/07 08:42:24;;;;;;;2.40;1.20;;;16.90;99.90;;;;;;6221743;23;20186;-81
2023/08/07 08:45:07;;;;;;;8.00;1.50;;;16.90;99.90;;;;;;6199091;23;20166;-80
2023/08/07 08:47:49;;;;;;;1.20;1.10;;;17.00;99.90;;;;;;6199035;23;20186;-80
2023/08/07 08:50:22;;;;;;;1.67;1.10;;;17.00;99.90;;;;;;6221260;23;20296;-79
2023/08/07 08:52:59;;;;;;;2.27;1.10;;;16.80;99.90;;;;;;6221992;23;20193;-79
2023/08/07 08:55:45;;;;;;;3.37;1.10;;;16.90;99.90;;;;;;6197689;23;20193;-80
2023/08/07 08:58:21;;;;;;;1.20;1.00;;;17.10;99.90;;;;;;6221301;23;20232;-79
2023/08/07 09:00:58;;;;;;;3.53;1.10;;;17.30;99.90;;;;;;6224544;23;20176;-79
2023/08/07 09:03:38;;;;;;;2.60;1.00;;;17.60;99.90;;;;;;6222891;23;20214;-79
2023/08/07 09:06:10;;;;;;;1.47;1.10;;;18.10;99.90;;;;;;6222711;23;20173;-80
2023/08/07 09:08:45;;;;;;;1.87;1.00;;;18.60;99.90;;;;;;6199600;23;20186;-79
2023/08/07 09:11:20;;;;;;;1.70;0.93;;;18.60;99.90;;;;;;6199554;23;20166;-80
2023/08/07 09:13:54;;;;;;;3.67;1.10;;;18.20;99.90;;;;;;6220332;23;20463;-80
2023/08/07 09:16:28;;;;;;;3.13;0.93;;;18.90;99.90;;;;;;6224763;23;20496;-79
2023/08/07 09:19:04;;;;;;;2.67;0.80;;;19.50;99.90;;;;;;6198987;23;20189;-81
2023/08/07 09:21:42;;;;;;;2.00;1.10;;;19.40;99.90;;;;;;6199452;23;20170;-82
2023/08/07 09:24:22;;;;;;;1.77;0.80;;;19.30;99.90;;;;;;6224558;23;20166;-81
2023/08/07 09:26:58;;;;;;;1.50;0.90;;;19.50;99.90;;;;;;6133008;23;20615;-82
2023/08/07 09:29:53;;;;;;;2.83;1.00;;;19.70;99.90;;;;;;6157138;23;20177;-79
2023/08/07 09:32:31;;;;;;;3.13;0.93;;;20.20;99.90;;;;;;6109982;23;20304;-81
2023/08/07 09:35:11;;;;;;;1.23;0.80;;;20.80;99.90;;;;;;6157460;23;20156;-80
2023/08/07 09:37:46;;;;;;;1.13;0.90;;;20.60;99.90;;;;;;6132751;23;20279;-80
2023/08/07 09:40:18;;;;;;;1.60;0.83;;;20.80;99.90;;;;;;6133463;23;20188;-80
2023/08/07 09:42:54;;;;;;;2.00;1.03;;;21.00;99.90;;;;;;6157155;23;20231;-81
2023/08/07 09:45:25;;;;;;;0.90;0.80;;;21.00;99.90;;;;;;6131687;23;20168;-80
2023/08/07 09:47:59;;;;;;;1.23;0.87;;;20.50;99.90;;;;;;6132612;23;20377;-80
2023/08/07 09:50:35;;;;;;;2.00;1.13;;;20.30;99.90;;;;;;6132556;23;20167;-80
2023/08/07 09:53:10;;;;;;;1.43;0.80;;;20.20;99.90;;;;;;6133545;23;20196;-80
2023/08/07 09:55:49;;;;;;;1.80;0.90;;;19.90;99.90;;;;;;6157364;23;20195;-80
2023/08/07 09:58:25;;;;;;;3.40;0.90;;;20.10;99.90;;;;;;6153836;23;20267;-79
2023/08/07 10:01:07;;;;;;;2.13;0.80;;;20.00;99.90;;;;;;6169255;23;20558;-79
2023/08/07 10:03:46;;;;;;;1.93;0.90;;;19.80;99.90;;;;;;6169425;23;20194;-80
2023/08/07 10:06:18;;;;;;;1.43;0.80;;;19.50;99.90;;;;;;6168320;23;20241;-79
2023/08/07 10:08:47;;;;;;;4.30;1.00;;;19.80;99.90;;;;;;6191350;23;20622;-78
2023/08/07 10:11:17;;;;;;;2.40;0.87;;;20.00;99.90;;;;;;6167811;23;20167;-79
2023/08/07 10:13:57;;;;;;;1.07;0.90;;;20.40;99.90;;;;;;6195301;23;20258;-79
2023/08/07 10:16:30;;;;;;;1.30;1.00;;;20.70;99.90;;;;;;6193485;23;20166;-79
2023/08/07 10:19:07;;;;;;;2.53;0.87;;;20.80;99.90;;;;;;6194617;23;20230;-80
2023/08/07 10:21:46;;;;;;;1.23;1.00;;;21.40;99.90;;;;;;6168691;23;20263;-79
2023/08/07 10:24:18;;;;;;;1.60;1.00;;;21.10;99.90;;;;;;6219655;23;20147;-81
2023/08/07 10:26:53;;;;;;;3.03;0.97;;;21.40;99.90;;;;;;6165352;23;20229;-80
2023/08/07 10:29:41;;;;;;;3.57;0.93;;;21.70;99.90;;;;;;6170373;23;20171;-79
2023/08/07 10:32:15;;;;;;;1.40;1.00;;;21.80;99.90;;;;;;6218881;23;20186;-79
2023/08/07 10:34:50;;;;;;;2.20;0.90;;;21.60;99.90;;;;;;6168129;23;20205;-79
2023/08/07 10:37:45;;;;;;;2.43;0.90;;;20.90;99.90;;;;;;6168178;23;20195;-79
2023/08/07 10:40:13;;;;;;;1.53;1.00;;;20.60;99.90;;;;;;6192754;23;20191;-79
2023/08/07 10:43:19;;;;;;;1.97;0.97;;;20.80;99.90;;;;;;6193596;23;20547;-78
2023/08/07 10:46:00;;;;;;;1.70;1.03;;;21.10;99.90;;;;;;6171342;23;20167;-79
2023/08/07 10:48:28;;;;;;;1.73;1.20;;;21.70;99.90;;;;;;6191606;23;20262;-78
2023/08/07 10:51:19;;;;;;;3.13;1.10;;;22.00;99.90;;;;;;6194730;23;20198;-80
2023/08/07 10:54:01;;;;;;;2.53;1.07;;;22.10;99.90;;;;;;6171063;23;20219;-79
2023/08/07 10:56:41;;;;;;;2.40;1.17;;;22.10;99.90;;;;;;6127593;23;20173;-80
2023/08/07 10:59:18;;;;;;;2.20;1.10;;;21.20;99.90;;;;;;6104137;23;20199;-78
2023/08/07 11:01:55;;;;;;;1.97;1.00;;;20.50;99.90;;;;;;6078568;23;20177;-80
2023/08/07 11:04:25;;;;;;;5.83;1.10;;;20.70;99.90;;;;;;6126677;23;20223;-80
2023/08/07 11:07:07;;;;;;;2.80;1.00;;;20.90;99.90;;;;;;6080726;23;20208;-80
2023/08/07 11:09:48;;;;;;;3.47;0.90;;;20.90;99.90;;;;;;6103568;23;20445;-80
2023/08/07 11:12:31;;;;;;;1.10;0.87;;;20.70;99.90;;;;;;6102295;23;20196;-78
2023/08/07 11:15:03;;;;;;;1.40;1.10;;;20.40;99.90;;;;;;6185647;23;20167;-78
2023/08/07 11:17:41;;;;;;;1.50;0.90;;;20.40;99.90;;;;;;6218879;23;20183;-80
2023/08/07 11:20:12;;;;;;;2.53;1.10;;;21.10;99.90;;;;;;6192467;23;20190;-77
2023/08/07 11:22:52;;;;;;;2.27;0.90;;;22.30;99.90;;;;;;6192169;23;20370;-79
2023/08/07 11:25:27;;;;;;;1.87;0.83;;;22.70;99.90;;;;;;6193392;23;20194;-82
2023/08/07 11:28:01;;;;;;;2.90;0.87;;;22.80;99.90;;;;;;6049764;23;20189;-79
2023/08/07 11:30:40;;;;;;;2.37;0.80;;;22.60;99.90;;;;;;6011294;23;20624;-80
2023/08/07 11:33:15;;;;;;;1.33;0.90;;;22.50;99.90;;;;;;6011109;23;20599;-79
2023/08/07 11:35:42;;;;;;;3.00;1.07;;;22.40;99.90;;;;;;5987884;23;20268;-80
2023/08/07 11:38:28;;;;;;;2.30;0.90;;;22.30;99.90;;;;;;6011290;23;20195;-79
2023/08/07 11:41:00;;;;;;;1.30;0.80;;;22.50;99.90;;;;;;6011730;23;20180;-79
2023/08/07 11:43:29;;;;;;;2.85;0.90;;;22.20;99.90;;;;;;6012454;23;20191;-80
2023/08/07 11:46:04;;;;;;;2.77;1.00;;;22.70;99.90;;;;;;6062493;23;20169;-82
2023/08/07 11:48:35;;;;;;;2.67;0.80;;;22.60;99.90;;;;;;6135994;23;20201;-82
2023/08/07 11:51:07;;;;;;;3.75;1.08;;;22.90;99.90;;;;;;6220179;23;20206;-81
2023/08/07 11:53:40;;;;;;;2.03;1.10;;;23.40;99.90;;;;;;6128319;23;20184;-80
2023/08/07 11:56:15;;;;;;;2.70;1.27;;;23.40;99.90;;;;;;6128476;23;20191;-80
2023/08/07 11:58:47;;;;;;;2.63;1.10;;;23.20;99.90;;;;;;6128320;23;20191;-82
2023/08/07 12:01:16;;;;;;;1.93;1.13;;;23.30;99.90;;;;;;6103140;23;20197;-80
2023/08/07 12:03:55;;;;;;;2.03;1.10;;;23.30;99.90;;;;;;6103330;23;20188;-81
2023/08/07 12:06:30;;;;;;;1.53;1.10;;;23.80;99.90;;;;;;6103675;23;20172;-80
2023/08/07 12:08:59;;;;;;;2.65;1.40;;;24.10;99.90;;;;;;6103150;23;20276;-81
2023/08/07 12:11:28;;;;;;;1.80;1.05;;;24.10;99.90;;;;;;6170180;23;20467;-81
2023/08/07 12:13:55;;;;;;;3.20;1.25;;;23.80;99.90;;;;;;6249855;23;20186;-81
2023/08/07 12:16:24;;;;;;;2.13;1.27;;;22.90;99.90;;;;;;6250056;23;20170;-81
2023/08/07 12:18:59;;;;;;;3.47;1.17;;;22.20;99.90;;;;;;6225461;23;20184;-81
2023/08/07 12:21:32;;;;;;;4.37;1.40;;;21.80;99.90;;;;;;6198855;23;20182;-81
2023/08/07 12:23:59;;;;;;;2.70;1.20;;;21.30;99.90;;;;;;6224393;23;20182;-82
2023/08/07 12:26:29;;;;;;;3.77;1.47;;;20.90;99.90;;;;;;6223116;23;20277;-82
2023/08/07 12:28:56;;;;;;;3.53;1.30;;;20.70;99.90;;;;;;6249284;23;20261;-81
2023/08/07 12:31:24;;;;;;;3.07;1.17;;;20.90;99.90;;;;;;6248934;23;20171;-80
2023/08/07 12:33:54;;;;;;;1.53;1.23;;;20.60;99.90;;;;;;6197824;23;20190;-82
2023/08/07 12:36:21;;;;;;;1.83;1.30;;;20.50;99.90;;;;;;6222487;23;20446;-83
2023/08/07 12:38:48;;;;;;;1.57;1.13;;;20.40;99.90;;;;;;6222059;23;20190;-81
2023/08/07 12:41:16;;;;;;;3.60;1.30;;;20.40;99.90;;;;;;6222104;23;20462;-82
2023/08/07 12:43:46;;;;;;;1.60;1.30;;;20.30;99.90;;;;;;6248950;23;20187;-81
2023/08/07 12:46:13;;;;;;;2.70;1.30;;;20.20;99.90;;;;;;6197547;23;20492;-81
2023/08/07 12:48:43;;;;;;;2.00;1.40;;;20.30;99.90;;;;;;6222065;23;20256;-82
2023/08/07 12:51:10;;;;;;;4.50;1.50;;;20.60;99.90;;;;;;6223271;23;20197;-82
2023/08/07 12:53:37;;;;;;;2.87;1.27;;;20.60;99.90;;;;;;6223115;23;20254;-82
2023/08/07 12:56:05;;;;;;;3.07;1.30;;;20.80;99.90;;;;;;6223450;23;20197;-81
2023/08/07 12:58:33;;;;;;;3.27;1.30;;;21.10;99.90;;;;;;6156839;23;20207;-83
2023/08/07 13:01:00;;;;;;;3.30;1.23;;;21.70;99.90;;;;;;6132464;23;20504;-82
2023/08/07 13:03:27;;;;;;;3.07;1.30;;;22.00;99.90;;;;;;6108473;23;20203;-81
2023/08/07 13:05:55;;;;;;;2.33;1.23;;;22.40;99.90;;;;;;6106722;23;20263;-81
2023/08/07 13:08:22;;;;;;;1.70;1.20;;;22.90;99.90;;;;;;6131066;23;20220;-82
2023/08/07 13:10:49;;;;;;;2.80;1.33;;;23.30;99.90;;;;;;6131192;23;20168;-81
2023/08/07 13:13:16;;;;;;;2.60;1.40;;;24.10;99.90;;;;;;6155460;23;20192;-82
2023/08/07 13:15:43;;;;;;;1.85;1.20;;;24.70;99.90;;;;;;6114914;23;20536;-82
2023/08/07 13:18:10;;;;;;;3.15;1.27;;;24.30;99.90;;;;;;6221810;23;20197;-81
2023/08/07 13:20:37;;;;;;;3.85;1.25;;;24.60;99.90;;;;;;6221822;23;20182;-81
2023/08/07 13:23:06;;;;;;;4.50;1.30;;;23.80;99.90;;;;;;6248522;23;20189;-81
2023/08/07 13:25:33;;;;;;;1.92;1.33;;;23.30;99.90;;;;;;6198735;23;20178;-81
2023/08/07 13:28:04;;;;;;;4.53;1.37;;;23.00;99.90;;;;;;6249982;23;20499;-80
2023/08/07 13:30:31;;;;;;;1.93;1.30;;;23.10;99.90;;;;;;6223655;23;20162;-82
2023/08/07 13:33:03;;;;;;;3.22;1.20;;;23.10;99.90;;;;;;6223499;23;20216;-82
2023/08/07 13:35:32;;;;;;;2.90;1.23;;;22.50;99.90;;;;;;6223257;23;20242;-81
2023/08/07 13:38:00;;;;;;;4.17;1.60;;;22.30;99.90;;;;;;6223171;23;20441;-81
2023/08/07 13:40:28;;;;;;;5.20;1.40;;;22.10;99.90;;;;;;6223582;23;20190;-83
2023/08/07 13:42:54;;;;;;;1.90;1.37;;;21.90;99.90;;;;;;6222577;23;20599;-79
2023/08/07 13:45:21;;;;;;;2.17;1.37;;;21.90;99.90;;;;;;6223228;23;20541;-81
2023/08/07 13:47:48;;;;;;;5.93;1.80;;;22.70;99.90;;;;;;6199699;23;20325;-82
2023/08/07 13:50:22;;;;;;;3.10;1.50;;;22.70;99.90;;;;;;6251145;23;20237;-81
2023/08/07 13:52:48;;;;;;;7.53;1.80;;;22.40;99.90;;;;;;6224375;23;20245;-81
2023/08/07 13:55:35;;;;;;;3.50;1.30;;;22.10;99.90;;;;;;6224878;23;20174;-81
2023/08/07 13:58:03;;;;;;;2.83;1.30;;;21.70;99.90;;;;;;6251644;22;20213;-81
2023/08/07 14:00:34;;;;;;;2.80;1.50;;;21.50;99.90;;;;;;6199967;23;20603;-81
2023/08/07 14:03:01;;;;;;;3.17;1.33;;;20.90;99.90;;;;;;6224261;23;20273;-80
2023/08/07 14:05:28;;;;;;;2.67;1.30;;;20.60;99.90;;;;;;6225330;23;20216;-82
2023/08/07 14:07:58;;;;;;;3.13;1.50;;;20.50;99.90;;;;;;6251401;23;20189;-80
2023/08/07 14:10:25;;;;;;;2.20;1.37;;;20.60;99.90;;;;;;6224429;23;20170;-83
2023/08/07 14:12:52;;;;;;;5.00;1.43;;;20.40;99.90;;;;;;6199244;23;20220;-80
2023/08/07 14:15:19;;;;;;;3.33;1.40;;;20.00;99.90;;;;;;6225391;23;20548;-81
2023/08/07 14:17:47;;;;;;;3.80;1.50;;;19.80;99.90;;;;;;6251775;23;20186;-81
2023/08/07 14:20:14;;;;;;;3.73;1.50;;;19.80;99.90;;;;;;6225072;23;20182;-82
2023/08/07 14:22:41;;;;;;;1.63;1.30;;;19.80;99.90;;;;;;6224999;23;20182;-80
2023/08/07 14:25:09;;;;;;;2.63;1.37;;;19.90;99.90;;;;;;6224816;23;20166;-80
2023/08/07 14:27:36;;;;;;;4.73;1.43;;;19.90;99.90;;;;;;6251591;23;20225;-81
2023/08/07 14:30:03;;;;;;;3.00;1.37;;;20.00;99.90;;;;;;6223064;23;20197;-81
2023/08/07 14:32:30;;;;;;;3.30;1.63;;;19.90;99.90;;;;;;6223435;23;20194;-81
2023/08/07 14:34:58;;;;;;;2.90;1.60;;;19.90;99.90;;;;;;6222326;23;20174;-80
2023/08/07 14:37:25;;;;;;;1.60;1.30;;;19.90;99.90;;;;;;6249072;23;20581;-81
2023/08/07 14:39:52;;;;;;;4.03;1.57;;;19.90;99.90;;;;;;6223448;23;20259;-80
2023/08/07 14:42:19;;;;;;;2.20;1.50;;;20.00;99.90;;;;;;6200019;23;20569;-82
2023/08/07 14:44:46;;;;;;;3.33;1.40;;;20.00;99.90;;;;;;6249775;23;20209;-81
2023/08/07 14:47:13;;;;;;;4.23;1.77;;;19.90;99.90;;;;;;6223340;23;20500;-81
2023/08/07 14:49:41;;;;;;;3.50;1.80;;;20.10;99.90;;;;;;6223601;23;20220;-81
2023/08/07 14:52:08;;;;;;;2.97;1.60;;;20.10;99.90;;;;;;6198437;23;20194;-81
2023/08/07 14:54:36;;;;;;;2.73;1.70;;;19.70;99.90;;;;;;6223393;23;20179;-82
2023/08/07 14:57:03;;;;;;;4.57;1.60;;;19.40;99.90;;;;;;6222750;23;20210;-81
2023/08/07 14:59:31;;;;;;;3.77;1.53;;;19.70;99.90;;;;;;6222850;23;20249;-82
2023/08/07 15:01:58;;;;;;;2.77;1.70;;;20.30;99.90;;;;;;6223189;23;20268;-80
2023/08/07 15:04:26;;;;;;;3.97;1.87;;;21.40;99.90;;;;;;6223863;23;20216;-80
2023/08/07 15:06:53;;;;;;;2.57;1.60;;;22.50;99.90;;;;;;6199552;23;20207;-82
2023/08/07 15:09:24;;;;;;;3.40;1.87;;;23.50;99.90;;;;;;6251108;23;20169;-83
2023/08/07 15:11:51;;;;;;;2.33;1.73;;;23.80;99.90;;;;;;6224338;23;20494;-84
2023/08/07 15:14:18;;;;;;;3.50;1.80;;;24.50;99.90;;;;;;6225327;23;20213;-85
2023/08/07 15:16:45;;;;;;;3.33;1.75;;;24.90;99.90;;;;;;6223164;23;20261;-83
2023/08/07 15:19:14;;;;;;;3.35;1.75;;;24.30;99.90;;;;;;6222586;23;20177;-83
2023/08/07 15:21:42;;;;;;;4.82;1.60;;;24.80;99.90;;;;;;6131629;23;20188;-82
2023/08/07 15:24:09;;;;;;;3.60;1.70;;;25.90;99.90;;;;;;6132064;23;20197;-82
2023/08/07 15:26:37;;;;;;;2.33;1.40;;;26.40;99.90;;;;;;6131984;23;20176;-83
2023/08/07 15:29:04;;;;;;;3.85;1.65;;;26.20;99.90;;;;;;6132483;23;20185;-82
2023/08/07 15:31:32;;;;;;;4.70;1.50;;;25.90;99.90;;;;;;6045569;23;20178;-82
2023/08/07 15:33:59;;;;;;;3.97;1.70;;;25.40;99.90;;;;;;6070325;23;20277;-83
2023/08/07 15:36:26;;;;;;;2.10;1.80;;;24.20;99.90;;;;;;6070675;23;20443;-82
2023/08/07 15:38:53;;;;;;;2.20;1.50;;;23.70;99.90;;;;;;6078854;23;20578;-82
2023/08/07 15:41:21;;;;;;;2.58;1.80;;;24.30;99.90;;;;;;6157619;23;20214;-83
2023/08/07 15:43:51;;;;;;;2.50;1.40;;;25.50;99.90;;;;;;6158122;23;20208;-82
2023/08/07 15:46:18;;;;;;;3.03;1.98;;;25.60;99.90;;;;;;6133551;23;20196;-82
2023/08/07 15:48:45;;;;;;;3.92;1.90;;;25.10;99.90;;;;;;6158471;23;20591;-83
2023/08/07 15:51:12;;;;;;;2.83;1.70;;;25.70;99.90;;;;;;6133169;23;20200;-82
2023/08/07 15:53:40;;;;;;;2.20;1.50;;;25.90;99.90;;;;;;6133442;23;20234;-82
2023/08/07 15:56:07;;;;;;;3.80;1.80;;;26.60;99.10;;;;;;6178280;23;20526;-82
2023/08/07 15:58:34;;;;;;;4.68;1.70;;;27.50;97.30;;;;;;6224301;23;20208;-82
2023/08/07 16:01:01;;;;;;;3.20;1.80;;;27.40;96.80;;;;;;6224620;23;20178;-81
2023/08/07 16:03:28;;;;;;;2.28;1.50;;;27.50;97.10;;;;;;6224323;23;20583;-82
2023/08/07 16:05:56;;;;;;;2.35;1.50;;;27.20;94.90;;;;;;6251035;23;20426;-83
2023/08/07 16:11:53;;;;;;;4.50;1.65;;;26.30;96.00;;;;;;6162988;23;20221;-80
2023/08/07 16:14:23;;;;;;;2.25;1.52;;;26.60;96.30;;;;;;6188669;23;20159;-82
2023/08/07 16:16:54;;;;;;;3.17;1.63;;;26.10;96.00;;;;;;6188341;23;20156;-79
2023/08/07 16:19:29;;;;;;;2.38;1.60;;;25.70;95.40;;;;;;6138968;23;20251;-81
2023/08/07 16:22:07;;;;;;;2.47;1.58;;;25.40;96.30;;;;;;6187978;23;20171;-78
2023/08/07 16:24:45;;;;;;;3.75;1.80;;;24.50;96.10;;;;;;6188285;23;20590;-79
2023/08/07 16:27:40;;;;;;;3.40;1.65;;;23.70;97.40;;;;;;6162347;23;20183;-80
2023/08/07 16:30:23;;;;;;;4.93;1.77;;;22.90;99.20;;;;;;6157003;23;20176;-79
2023/08/07 16:32:50;;;;;;;4.85;1.92;;;22.30;99.90;;;;;;6163053;23;20479;-79
2023/08/07 16:35:18;;;;;;;3.00;1.70;;;22.10;99.90;;;;;;6187399;23;20229;-78
2023/08/07 16:37:48;;;;;;;3.15;1.80;;;21.90;99.90;;;;;;6187128;23;20470;-78
2023/08/07 16:40:18;;;;;;;6.60;2.47;;;21.90;99.90;;;;;;6162183;23;20484;-78
2023/08/07 16:42:50;;;;;;;2.93;1.83;;;21.60;99.90;;;;;;6186535;23;20190;-81
2023/08/07 16:45:33;;;;;;;2.23;1.70;;;21.20;99.90;;;;;;6160333;23;20178;-77
2023/08/07 16:48:00;;;;;;;1.77;1.50;;;20.70;99.90;;;;;;6186992;23;20218;-77
2023/08/07 16:50:31;;;;;;;2.67;1.70;;;20.60;99.90;;;;;;6186522;23;20183;-76
2023/08/07 16:52:59;;;;;;;3.77;1.70;;;20.20;99.90;;;;;;6162140;23;20574;-79
2023/08/07 16:55:27;;;;;;;5.50;1.70;;;20.20;99.90;;;;;;6162530;23;20171;-79
2023/08/07 16:57:57;;;;;;;3.17;1.60;;;20.20;99.90;;;;;;6186865;23;20195;-79
2023/08/07 17:00:30;;;;;;;2.97;1.77;;;20.00;99.90;;;;;;6186540;23;20222;-77
2023/08/07 17:03:01;;;;;;;6.03;1.93;;;20.10;99.90;;;;;;6188099;23;20183;-77
2023/08/07 17:05:28;;;;;;;2.93;1.63;;;20.00;99.90;;;;;;6161830;23;20193;-78
2023/08/07 17:07:56;;;;;;;4.00;1.60;;;20.00;99.90;;;;;;6137625;23;20602;-78
2023/08/07 17:10:26;;;;;;;3.40;1.67;;;19.90;99.90;;;;;;6187129;23;20197;-79
2023/08/07 17:12:53;;;;;;;2.77;1.57;;;19.90;99.90;;;;;;6162914;23;20414;-79
2023/08/07 17:15:26;;;;;;;1.87;1.43;;;20.00;99.90;;;;;;6162569;23;20191;-78
2023/08/07 17:17:54;;;;;;;3.10;1.57;;;19.70;99.90;;;;;;6163728;23;20215;-80
2023/08/07 17:20:27;;;;;;;2.10;1.50;;;19.70;99.90;;;;;;6187813;23;20239;-77
2023/08/07 17:22:55;;;;;;;2.43;1.70;;;19.70;99.90;;;;;;6190093;23;20447;-78
2023/08/07 17:25:25;;;;;;;3.97;1.70;;;19.80;99.90;;;;;;6188944;23;20168;-79
2023/08/07 18:46:18;;;;;;;2.70;1.60;;;18.30;99.90;;;;;;6215858;22;20522;-82
2023/08/07 18:48:46;;;;;;;3.13;1.70;;;18.30;99.90;;;;;;6220268;23;20274;-81
2023/08/07 18:51:13;;;;;;;2.60;1.40;;;18.30;99.90;;;;;;6220433;23;20171;-82
2023/08/07 18:53:40;;;;;;;3.90;1.50;;;18.20;99.90;;;;;;6193685;23;20411;-82
2023/08/07 18:56:07;;;;;;;1.60;1.40;;;18.10;99.90;;;;;;6193131;23;20242;-81
2023/08/07 18:58:34;;;;;;;3.23;1.57;;;18.00;99.90;;;;;;6168681;23;20190;-82
2023/08/07 19:01:01;;;;;;;2.43;1.40;;;18.00;99.90;;;;;;6193512;23;20210;-81
2023/08/07 19:03:29;;;;;;;2.97;1.40;;;18.00;99.90;;;;;;6220503;23;20183;-82
2023/08/07 19:05:56;;;;;;;3.60;1.60;;;18.00;99.90;;;;;;6219562;23;20167;-83
2023/08/07 19:08:23;;;;;;;5.00;1.70;;;18.00;99.90;;;;;;6193414;23;20241;-82
2023/08/07 19:10:50;;;;;;;5.10;2.00;;;17.90;99.90;;;;;;6193425;23;20163;-82
2023/08/07 19:13:17;;;;;;;3.40;1.90;;;17.80;99.90;;;;;;6193044;23;20198;-82
2023/08/07 19:15:45;;;;;;;3.37;1.67;;;17.90;99.90;;;;;;6192915;23;20163;-82
2023/08/07 19:18:12;;;;;;;3.17;1.70;;;17.90;99.90;;;;;;6193235;23;20191;-81
2023/08/07 19:20:41;;;;;;;4.33;2.00;;;17.80;99.90;;;;;;6194250;23;20185;-84
2023/08/07 19:23:10;;;;;;;3.13;1.80;;;17.70;99.90;;;;;;6194733;23;20198;-83
2023/08/07 19:25:39;;;;;;;3.43;1.60;;;17.70;99.90;;;;;;6170039;23;20163;-80
2023/08/07 20:17:58;;;;;;;2.70;1.77;;;16.50;99.90;;;;;;6041801;23;20591;-85
